sensor_id;sensor_type;location;lat;lon;timestamp;P1;durP1;ratioP1;P2;durP2;ratioP2
57599;SDS011;43426;43.594;24.334;2023-11-21T00:00:12;16.73;;;10.43;;
57599;SDS011;43426;43.594;24.334;2023-11-21T00:02:38;20.77;;;11.05;;
57599;SDS011;43426;43.594;24.334;2023-11-21T00:05:06;14.52;;;9.90;;
57599;SDS011;43426;43.594;24.334;2023-11-21T00:07:36;16.90;;;10.07;;
57599;SDS011;43426;43.594;24.334;2023-11-21T00:12:28;13.60;;;9.52;;
57599;SDS011;43426;43.594;24.334;2023-11-21T00:14:54;16.70;;;10.30;;
57599;SDS011;43426;43.594;24.334;2023-11-21T00:17:20;19.85;;;10.38;;
57599;SDS011;43426;43.594;24.334;2023-11-21T00:19:45;14.70;;;9.67;;
57599;SDS011;43426;43.594;24.334;2023-11-21T00:22:11;13.38;;;10.18;;
57599;SDS011;43426;43.594;24.334;2023-11-21T00:24:36;13.10;;;10.27;;
57599;SDS011;43426;43.594;24.334;2023-11-21T00:27:02;16.13;;;10.20;;
57599;SDS011;43426;43.594;24.334;2023-11-21T00:29:27;11.18;;;9.82;;
57599;SDS011;43426;43.594;24.334;2023-11-21T00:31:53;13.90;;;10.48;;
57599;SDS011;43426;43.594;24.334;2023-11-21T00:34:18;14.77;;;10.43;;
57599;SDS011;43426;43.594;24.334;2023-11-21T00:36:44;16.55;;;10.30;;
57599;SDS011;43426;43.594;24.334;2023-11-21T00:39:10;16.67;;;9.60;;
57599;SDS011;43426;43.594;24.334;2023-11-21T00:41:36;16.40;;;10.10;;
57599;SDS011;43426;43.594;24.334;2023-11-21T00:44:02;17.33;;;9.88;;
57599;SDS011;43426;43.594;24.334;2023-11-21T00:46:28;15.45;;;9.13;;
57599;SDS011;43426;43.594;24.334;2023-11-21T00:48:54;14.10;;;9.88;;
57599;SDS011;43426;43.594;24.334;2023-11-21T00:51:20;12.07;;;9.32;;
57599;SDS011;43426;43.594;24.334;2023-11-21T00:53:46;12.35;;;9.02;;
57599;SDS011;43426;43.594;24.334;2023-11-21T00:56:12;11.43;;;8.77;;
57599;SDS011;43426;43.594;24.334;2023-11-21T00:58:38;14.25;;;8.68;;
57599;SDS011;43426;43.594;24.334;2023-11-21T01:01:07;11.55;;;8.25;;
57599;SDS011;43426;43.594;24.334;2023-11-21T01:03:33;15.82;;;8.55;;
57599;SDS011;43426;43.594;24.334;2023-11-21T01:05:58;12.30;;;7.80;;
57599;SDS011;43426;43.594;24.334;2023-11-21T01:08:24;12.23;;;8.47;;
57599;SDS011;43426;43.594;24.334;2023-11-21T01:10:49;15.90;;;9.38;;
57599;SDS011;43426;43.594;24.334;2023-11-21T01:13:15;12.18;;;8.65;;
57599;SDS011;43426;43.594;24.334;2023-11-21T01:15:40;14.68;;;9.10;;
57599;SDS011;43426;43.594;24.334;2023-11-21T01:18:06;13.38;;;8.90;;
57599;SDS011;43426;43.594;24.334;2023-11-21T01:20:35;14.98;;;9.23;;
57599;SDS011;43426;43.594;24.334;2023-11-21T01:23:00;14.63;;;8.52;;
57599;SDS011;43426;43.594;24.334;2023-11-21T01:25:26;12.25;;;9.50;;
57599;SDS011;43426;43.594;24.334;2023-11-21T01:27:51;14.30;;;8.77;;
57599;SDS011;43426;43.594;24.334;2023-11-21T01:30:17;13.23;;;8.45;;
57599;SDS011;43426;43.594;24.334;2023-11-21T01:32:43;15.38;;;9.30;;
57599;SDS011;43426;43.594;24.334;2023-11-21T01:35:08;26.40;;;13.07;;
57599;SDS011;43426;43.594;24.334;2023-11-21T01:37:35;21.85;;;11.40;;
57599;SDS011;43426;43.594;24.334;2023-11-21T01:40:02;17.50;;;10.50;;
57599;SDS011;43426;43.594;24.334;2023-11-21T01:42:30;21.67;;;10.27;;
57599;SDS011;43426;43.594;24.334;2023-11-21T01:44:55;19.27;;;9.43;;
57599;SDS011;43426;43.594;24.334;2023-11-21T01:47:21;13.13;;;9.15;;
57599;SDS011;43426;43.594;24.334;2023-11-21T01:49:46;18.48;;;10.02;;
57599;SDS011;43426;43.594;24.334;2023-11-21T01:52:13;15.70;;;9.10;;
57599;SDS011;43426;43.594;24.334;2023-11-21T01:54:40;17.30;;;9.88;;
57599;SDS011;43426;43.594;24.334;2023-11-21T01:57:06;11.82;;;9.23;;
57599;SDS011;43426;43.594;24.334;2023-11-21T01:59:35;11.82;;;8.88;;
57599;SDS011;43426;43.594;24.334;2023-11-21T02:02:05;19.35;;;10.45;;
57599;SDS011;43426;43.594;24.334;2023-11-21T02:04:35;12.20;;;8.10;;
57599;SDS011;43426;43.594;24.334;2023-11-21T02:07:04;15.93;;;8.95;;
57599;SDS011;43426;43.594;24.334;2023-11-21T02:09:33;14.80;;;9.10;;
57599;SDS011;43426;43.594;24.334;2023-11-21T02:11:59;18.65;;;10.10;;
57599;SDS011;43426;43.594;24.334;2023-11-21T02:14:25;15.85;;;8.93;;
57599;SDS011;43426;43.594;24.334;2023-11-21T02:16:52;15.43;;;8.52;;
57599;SDS011;43426;43.594;24.334;2023-11-21T02:19:19;12.90;;;8.88;;
57599;SDS011;43426;43.594;24.334;2023-11-21T02:21:50;17.40;;;9.45;;
57599;SDS011;43426;43.594;24.334;2023-11-21T02:24:20;15.70;;;10.90;;
57599;SDS011;43426;43.594;24.334;2023-11-21T02:26:47;12.40;;;8.52;;
57599;SDS011;43426;43.594;24.334;2023-11-21T02:29:13;10.23;;;8.20;;
57599;SDS011;43426;43.594;24.334;2023-11-21T02:31:41;12.10;;;8.55;;
57599;SDS011;43426;43.594;24.334;2023-11-21T02:34:15;13.90;;;9.00;;
57599;SDS011;43426;43.594;24.334;2023-11-21T02:36:42;12.13;;;8.02;;
57599;SDS011;43426;43.594;24.334;2023-11-21T02:39:11;15.80;;;9.10;;
57599;SDS011;43426;43.594;24.334;2023-11-21T02:41:37;16.23;;;9.73;;
57599;SDS011;43426;43.594;24.334;2023-11-21T02:44:04;14.73;;;9.18;;
57599;SDS011;43426;43.594;24.334;2023-11-21T02:46:31;17.63;;;9.68;;
57599;SDS011;43426;43.594;24.334;2023-11-21T02:48:59;15.70;;;10.48;;
57599;SDS011;43426;43.594;24.334;2023-11-21T02:51:28;13.55;;;9.07;;
57599;SDS011;43426;43.594;24.334;2023-11-21T02:54:03;19.05;;;9.75;;
57599;SDS011;43426;43.594;24.334;2023-11-21T02:56:33;17.80;;;9.82;;
57599;SDS011;43426;43.594;24.334;2023-11-21T02:58:59;14.38;;;9.70;;
57599;SDS011;43426;43.594;24.334;2023-11-21T03:01:25;10.48;;;8.52;;
57599;SDS011;43426;43.594;24.334;2023-11-21T03:03:51;12.80;;;9.02;;
57599;SDS011;43426;43.594;24.334;2023-11-21T03:06:17;17.25;;;10.20;;
57599;SDS011;43426;43.594;24.334;2023-11-21T03:08:43;17.92;;;10.02;;
57599;SDS011;43426;43.594;24.334;2023-11-21T03:11:09;17.27;;;8.80;;
57599;SDS011;43426;43.594;24.334;2023-11-21T03:13:34;18.90;;;9.85;;
57599;SDS011;43426;43.594;24.334;2023-11-21T03:16:00;19.85;;;10.55;;
57599;SDS011;43426;43.594;24.334;2023-11-21T03:18:25;17.38;;;9.80;;
57599;SDS011;43426;43.594;24.334;2023-11-21T03:20:52;31.98;;;13.45;;
57599;SDS011;43426;43.594;24.334;2023-11-21T03:23:18;37.70;;;16.80;;
57599;SDS011;43426;43.594;24.334;2023-11-21T03:25:43;35.55;;;13.75;;
57599;SDS011;43426;43.594;24.334;2023-11-21T03:28:09;16.10;;;10.43;;
57599;SDS011;43426;43.594;24.334;2023-11-21T03:30:34;12.63;;;8.82;;
57599;SDS011;43426;43.594;24.334;2023-11-21T03:33:00;15.77;;;9.88;;
57599;SDS011;43426;43.594;24.334;2023-11-21T03:35:26;17.92;;;8.40;;
57599;SDS011;43426;43.594;24.334;2023-11-21T03:37:52;13.38;;;8.57;;
57599;SDS011;43426;43.594;24.334;2023-11-21T03:40:17;14.40;;;8.98;;
57599;SDS011;43426;43.594;24.334;2023-11-21T03:42:43;11.40;;;8.52;;
57599;SDS011;43426;43.594;24.334;2023-11-21T03:45:08;14.33;;;8.27;;
57599;SDS011;43426;43.594;24.334;2023-11-21T03:47:34;13.63;;;8.57;;
57599;SDS011;43426;43.594;24.334;2023-11-21T03:50:00;10.13;;;7.20;;
57599;SDS011;43426;43.594;24.334;2023-11-21T03:52:25;11.98;;;7.43;;
57599;SDS011;43426;43.594;24.334;2023-11-21T03:57:17;10.80;;;7.97;;
57599;SDS011;43426;43.594;24.334;2023-11-21T03:59:43;12.83;;;7.33;;
57599;SDS011;43426;43.594;24.334;2023-11-21T04:02:08;9.55;;;7.28;;
57599;SDS011;43426;43.594;24.334;2023-11-21T04:04:35;10.70;;;7.03;;
57599;SDS011;43426;43.594;24.334;2023-11-21T04:07:01;14.70;;;8.30;;
57599;SDS011;43426;43.594;24.334;2023-11-21T04:09:27;17.70;;;11.13;;
57599;SDS011;43426;43.594;24.334;2023-11-21T04:11:53;12.35;;;9.88;;
57599;SDS011;43426;43.594;24.334;2023-11-21T04:14:18;14.15;;;8.25;;
57599;SDS011;43426;43.594;24.334;2023-11-21T04:16:44;12.88;;;8.18;;
57599;SDS011;43426;43.594;24.334;2023-11-21T04:19:10;12.75;;;8.50;;
57599;SDS011;43426;43.594;24.334;2023-11-21T04:21:36;11.63;;;7.22;;
57599;SDS011;43426;43.594;24.334;2023-11-21T04:24:02;9.65;;;7.10;;
57599;SDS011;43426;43.594;24.334;2023-11-21T04:26:28;8.32;;;6.78;;
57599;SDS011;43426;43.594;24.334;2023-11-21T04:28:53;8.57;;;7.15;;
57599;SDS011;43426;43.594;24.334;2023-11-21T04:31:19;13.00;;;8.70;;
57599;SDS011;43426;43.594;24.334;2023-11-21T04:33:44;10.43;;;8.33;;
57599;SDS011;43426;43.594;24.334;2023-11-21T04:36:10;11.87;;;8.07;;
57599;SDS011;43426;43.594;24.334;2023-11-21T04:38:35;8.95;;;7.65;;
57599;SDS011;43426;43.594;24.334;2023-11-21T04:41:01;10.27;;;7.97;;
57599;SDS011;43426;43.594;24.334;2023-11-21T04:43:26;12.15;;;7.82;;
57599;SDS011;43426;43.594;24.334;2023-11-21T04:45:52;17.37;;;9.07;;
57599;SDS011;43426;43.594;24.334;2023-11-21T04:48:17;13.55;;;8.25;;
57599;SDS011;43426;43.594;24.334;2023-11-21T04:50:43;10.27;;;8.30;;
57599;SDS011;43426;43.594;24.334;2023-11-21T04:53:08;11.80;;;7.90;;
57599;SDS011;43426;43.594;24.334;2023-11-21T04:55:34;12.07;;;6.88;;
57599;SDS011;43426;43.594;24.334;2023-11-21T04:57:59;10.70;;;6.77;;
57599;SDS011;43426;43.594;24.334;2023-11-21T05:00:24;6.55;;;5.93;;
57599;SDS011;43426;43.594;24.334;2023-11-21T05:02:50;7.80;;;6.90;;
57599;SDS011;43426;43.594;24.334;2023-11-21T05:05:15;8.80;;;6.35;;
57599;SDS011;43426;43.594;24.334;2023-11-21T05:07:41;9.27;;;6.60;;
57599;SDS011;43426;43.594;24.334;2023-11-21T05:10:07;11.48;;;6.43;;
57599;SDS011;43426;43.594;24.334;2023-11-21T05:12:37;6.82;;;6.05;;
57599;SDS011;43426;43.594;24.334;2023-11-21T05:15:05;9.57;;;6.82;;
57599;SDS011;43426;43.594;24.334;2023-11-21T05:17:36;10.25;;;6.32;;
57599;SDS011;43426;43.594;24.334;2023-11-21T05:20:07;9.77;;;6.38;;
57599;SDS011;43426;43.594;24.334;2023-11-21T05:22:35;11.45;;;7.70;;
57599;SDS011;43426;43.594;24.334;2023-11-21T05:25:01;19.92;;;14.13;;
57599;SDS011;43426;43.594;24.334;2023-11-21T05:27:28;16.05;;;12.18;;
57599;SDS011;43426;43.594;24.334;2023-11-21T05:29:55;19.20;;;11.50;;
57599;SDS011;43426;43.594;24.334;2023-11-21T05:32:21;11.70;;;9.95;;
57599;SDS011;43426;43.594;24.334;2023-11-21T05:34:48;18.67;;;10.50;;
57599;SDS011;43426;43.594;24.334;2023-11-21T05:37:14;12.90;;;7.32;;
57599;SDS011;43426;43.594;24.334;2023-11-21T05:39:39;11.43;;;7.70;;
57599;SDS011;43426;43.594;24.334;2023-11-21T05:42:05;10.88;;;7.75;;
57599;SDS011;43426;43.594;24.334;2023-11-21T05:44:31;12.73;;;9.02;;
57599;SDS011;43426;43.594;24.334;2023-11-21T05:46:56;12.20;;;8.55;;
57599;SDS011;43426;43.594;24.334;2023-11-21T05:49:23;12.57;;;8.80;;
57599;SDS011;43426;43.594;24.334;2023-11-21T05:51:51;11.45;;;8.60;;
57599;SDS011;43426;43.594;24.334;2023-11-21T05:54:19;8.60;;;7.70;;
57599;SDS011;43426;43.594;24.334;2023-11-21T05:56:45;15.23;;;8.27;;
57599;SDS011;43426;43.594;24.334;2023-11-21T05:59:12;13.20;;;9.00;;
57599;SDS011;43426;43.594;24.334;2023-11-21T06:01:37;11.38;;;7.90;;
57599;SDS011;43426;43.594;24.334;2023-11-21T06:04:04;10.90;;;8.13;;
57599;SDS011;43426;43.594;24.334;2023-11-21T06:08:56;10.43;;;7.88;;
57599;SDS011;43426;43.594;24.334;2023-11-21T06:11:22;9.10;;;8.20;;
57599;SDS011;43426;43.594;24.334;2023-11-21T06:13:47;10.88;;;8.63;;
57599;SDS011;43426;43.594;24.334;2023-11-21T06:16:13;10.35;;;7.00;;
57599;SDS011;43426;43.594;24.334;2023-11-21T06:18:41;11.70;;;8.25;;
57599;SDS011;43426;43.594;24.334;2023-11-21T06:21:10;10.63;;;6.40;;
57599;SDS011;43426;43.594;24.334;2023-11-21T06:23:35;8.85;;;6.25;;
57599;SDS011;43426;43.594;24.334;2023-11-21T06:26:01;6.43;;;5.82;;
57599;SDS011;43426;43.594;24.334;2023-11-21T06:28:26;8.25;;;6.20;;
57599;SDS011;43426;43.594;24.334;2023-11-21T06:30:53;13.10;;;6.30;;
57599;SDS011;43426;43.594;24.334;2023-11-21T06:33:24;7.50;;;5.80;;
57599;SDS011;43426;43.594;24.334;2023-11-21T06:35:52;8.32;;;6.97;;
57599;SDS011;43426;43.594;24.334;2023-11-21T06:38:20;6.95;;;6.13;;
57599;SDS011;43426;43.594;24.334;2023-11-21T06:40:46;9.15;;;5.50;;
57599;SDS011;43426;43.594;24.334;2023-11-21T06:43:13;6.43;;;5.53;;
57599;SDS011;43426;43.594;24.334;2023-11-21T06:45:45;6.93;;;5.40;;
57599;SDS011;43426;43.594;24.334;2023-11-21T06:48:12;8.23;;;6.00;;
57599;SDS011;43426;43.594;24.334;2023-11-21T06:50:40;7.18;;;5.15;;
57599;SDS011;43426;43.594;24.334;2023-11-21T06:53:08;5.57;;;4.95;;
57599;SDS011;43426;43.594;24.334;2023-11-21T06:55:36;8.02;;;6.15;;
57599;SDS011;43426;43.594;24.334;2023-11-21T06:58:04;11.52;;;8.32;;
57599;SDS011;43426;43.594;24.334;2023-11-21T07:00:30;8.85;;;6.45;;
57599;SDS011;43426;43.594;24.334;2023-11-21T07:02:58;7.28;;;6.03;;
57599;SDS011;43426;43.594;24.334;2023-11-21T07:05:28;11.65;;;6.38;;
57599;SDS011;43426;43.594;24.334;2023-11-21T07:07:55;9.27;;;6.57;;
57599;SDS011;43426;43.594;24.334;2023-11-21T07:10:23;9.70;;;7.00;;
57599;SDS011;43426;43.594;24.334;2023-11-21T07:12:49;18.95;;;9.25;;
57599;SDS011;43426;43.594;24.334;2023-11-21T07:15:18;16.80;;;10.73;;
57599;SDS011;43426;43.594;24.334;2023-11-21T07:17:45;25.70;;;13.93;;
57599;SDS011;43426;43.594;24.334;2023-11-21T07:20:13;29.40;;;17.30;;
57599;SDS011;43426;43.594;24.334;2023-11-21T07:22:43;22.70;;;13.50;;
57599;SDS011;43426;43.594;24.334;2023-11-21T07:25:09;16.85;;;10.45;;
57599;SDS011;43426;43.594;24.334;2023-11-21T07:27:37;14.55;;;9.85;;
57599;SDS011;43426;43.594;24.334;2023-11-21T07:32:40;14.55;;;9.43;;
57599;SDS011;43426;43.594;24.334;2023-11-21T07:35:07;11.43;;;7.82;;
57599;SDS011;43426;43.594;24.334;2023-11-21T07:37:39;9.65;;;5.90;;
57599;SDS011;43426;43.594;24.334;2023-11-21T07:40:06;17.73;;;10.82;;
57599;SDS011;43426;43.594;24.334;2023-11-21T07:42:33;39.45;;;18.15;;
57599;SDS011;43426;43.594;24.334;2023-11-21T07:44:59;67.88;;;29.40;;
57599;SDS011;43426;43.594;24.334;2023-11-21T07:47:25;39.10;;;20.02;;
57599;SDS011;43426;43.594;24.334;2023-11-21T07:49:53;39.45;;;21.08;;
57599;SDS011;43426;43.594;24.334;2023-11-21T07:52:22;24.83;;;14.52;;
57599;SDS011;43426;43.594;24.334;2023-11-21T07:54:48;22.92;;;13.27;;
57599;SDS011;43426;43.594;24.334;2023-11-21T07:57:16;43.45;;;21.98;;
57599;SDS011;43426;43.594;24.334;2023-11-21T07:59:43;54.42;;;25.10;;
57599;SDS011;43426;43.594;24.334;2023-11-21T08:02:15;93.45;;;40.75;;
57599;SDS011;43426;43.594;24.334;2023-11-21T08:04:46;119.45;;;50.58;;
57599;SDS011;43426;43.594;24.334;2023-11-21T08:07:14;116.47;;;53.33;;
57599;SDS011;43426;43.594;24.334;2023-11-21T08:09:41;97.47;;;43.78;;
57599;SDS011;43426;43.594;24.334;2023-11-21T08:12:09;88.65;;;39.15;;
57599;SDS011;43426;43.594;24.334;2023-11-21T08:14:36;75.68;;;29.77;;
57599;SDS011;43426;43.594;24.334;2023-11-21T08:17:06;73.10;;;31.23;;
57599;SDS011;43426;43.594;24.334;2023-11-21T08:19:32;222.88;;;82.25;;
57599;SDS011;43426;43.594;24.334;2023-11-21T08:21:59;351.58;;;126.43;;
57599;SDS011;43426;43.594;24.334;2023-11-21T08:24:32;121.88;;;42.97;;
57599;SDS011;43426;43.594;24.334;2023-11-21T08:26:59;40.03;;;15.45;;
57599;SDS011;43426;43.594;24.334;2023-11-21T08:29:26;9.50;;;5.65;;
57599;SDS011;43426;43.594;24.334;2023-11-21T08:31:53;6.85;;;4.60;;
57599;SDS011;43426;43.594;24.334;2023-11-21T08:36:50;4.90;;;3.25;;
57599;SDS011;43426;43.594;24.334;2023-11-21T08:39:18;3.15;;;2.35;;
57599;SDS011;43426;43.594;24.334;2023-11-21T08:41:44;3.42;;;2.10;;
57599;SDS011;43426;43.594;24.334;2023-11-21T08:44:09;3.05;;;2.05;;
57599;SDS011;43426;43.594;24.334;2023-11-21T08:46:36;39.47;;;13.50;;
57599;SDS011;43426;43.594;24.334;2023-11-21T08:49:03;37.90;;;12.43;;
57599;SDS011;43426;43.594;24.334;2023-11-21T08:51:28;13.70;;;7.05;;
57599;SDS011;43426;43.594;24.334;2023-11-21T08:53:54;24.50;;;9.15;;
57599;SDS011;43426;43.594;24.334;2023-11-21T08:56:20;65.65;;;21.10;;
57599;SDS011;43426;43.594;24.334;2023-11-21T08:58:45;71.20;;;25.38;;
57599;SDS011;43426;43.594;24.334;2023-11-21T09:01:15;38.40;;;15.70;;
57599;SDS011;43426;43.594;24.334;2023-11-21T09:03:41;13.38;;;7.80;;
57599;SDS011;43426;43.594;24.334;2023-11-21T09:06:06;11.50;;;6.93;;
57599;SDS011;43426;43.594;24.334;2023-11-21T09:08:34;11.50;;;4.88;;
57599;SDS011;43426;43.594;24.334;2023-11-21T09:11:00;18.05;;;10.00;;
57599;SDS011;43426;43.594;24.334;2023-11-21T09:15:51;13.73;;;4.93;;
57599;SDS011;43426;43.594;24.334;2023-11-21T09:20:42;9.10;;;5.40;;
57599;SDS011;43426;43.594;24.334;2023-11-21T09:23:10;2.30;;;1.20;;
57599;SDS011;43426;43.594;24.334;2023-11-21T09:25:35;2.75;;;1.50;;
57599;SDS011;43426;43.594;24.334;2023-11-21T09:28:03;4.68;;;2.90;;
57599;SDS011;43426;43.594;24.334;2023-11-21T09:30:33;3.22;;;2.50;;
57599;SDS011;43426;43.594;24.334;2023-11-21T09:33:00;5.10;;;3.20;;
57599;SDS011;43426;43.594;24.334;2023-11-21T09:37:53;4.30;;;2.78;;
57599;SDS011;43426;43.594;24.334;2023-11-21T09:40:20;7.72;;;2.35;;
57599;SDS011;43426;43.594;24.334;2023-11-21T09:45:28;1.60;;;1.25;;
57599;SDS011;43426;43.594;24.334;2023-11-21T09:47:59;2.15;;;1.23;;
57599;SDS011;43426;43.594;24.334;2023-11-21T09:50:25;3.10;;;2.00;;
57599;SDS011;43426;43.594;24.334;2023-11-21T09:52:58;5.35;;;2.80;;
57599;SDS011;43426;43.594;24.334;2023-11-21T09:55:32;5.57;;;3.42;;
57599;SDS011;43426;43.594;24.334;2023-11-21T09:58:02;6.93;;;3.08;;
57599;SDS011;43426;43.594;24.334;2023-11-21T10:00:30;2.30;;;1.33;;
57599;SDS011;43426;43.594;24.334;2023-11-21T10:02:59;2.83;;;1.60;;
57599;SDS011;43426;43.594;24.334;2023-11-21T10:05:25;1.75;;;1.00;;
57599;SDS011;43426;43.594;24.334;2023-11-21T10:07:50;1.92;;;0.90;;
57599;SDS011;43426;43.594;24.334;2023-11-21T10:10:18;2.45;;;1.90;;
57599;SDS011;43426;43.594;24.334;2023-11-21T10:12:48;3.22;;;2.10;;
57599;SDS011;43426;43.594;24.334;2023-11-21T10:15:18;5.28;;;1.30;;
57599;SDS011;43426;43.594;24.334;2023-11-21T10:17:50;2.60;;;1.27;;
57599;SDS011;43426;43.594;24.334;2023-11-21T10:20:19;5.80;;;1.38;;
57599;SDS011;43426;43.594;24.334;2023-11-21T10:22:45;2.78;;;2.00;;
57599;SDS011;43426;43.594;24.334;2023-11-21T10:25:11;2.28;;;1.45;;
57599;SDS011;43426;43.594;24.334;2023-11-21T10:27:39;3.72;;;1.30;;
57599;SDS011;43426;43.594;24.334;2023-11-21T10:32:31;2.70;;;1.40;;
57599;SDS011;43426;43.594;24.334;2023-11-21T10:34:58;3.30;;;1.63;;
57599;SDS011;43426;43.594;24.334;2023-11-21T10:37:31;1.33;;;1.00;;
57599;SDS011;43426;43.594;24.334;2023-11-21T10:40:00;2.00;;;0.93;;
57599;SDS011;43426;43.594;24.334;2023-11-21T10:44:52;3.65;;;1.17;;
57599;SDS011;43426;43.594;24.334;2023-11-21T10:47:18;1.27;;;1.10;;
57599;SDS011;43426;43.594;24.334;2023-11-21T10:49:45;4.53;;;1.10;;
57599;SDS011;43426;43.594;24.334;2023-11-21T10:52:13;1.25;;;0.80;;
57599;SDS011;43426;43.594;24.334;2023-11-21T10:54:42;2.63;;;1.40;;
57599;SDS011;43426;43.594;24.334;2023-11-21T10:57:08;2.25;;;1.40;;
57599;SDS011;43426;43.594;24.334;2023-11-21T10:59:35;2.28;;;1.40;;
57599;SDS011;43426;43.594;24.334;2023-11-21T11:04:46;3.75;;;2.13;;
57599;SDS011;43426;43.594;24.334;2023-11-21T11:07:13;5.88;;;3.28;;
57599;SDS011;43426;43.594;24.334;2023-11-21T11:09:41;5.15;;;3.83;;
57599;SDS011;43426;43.594;24.334;2023-11-21T11:14:35;3.60;;;2.83;;
57599;SDS011;43426;43.594;24.334;2023-11-21T11:17:01;4.00;;;2.10;;
57599;SDS011;43426;43.594;24.334;2023-11-21T11:19:29;3.63;;;2.33;;
57599;SDS011;43426;43.594;24.334;2023-11-21T11:24:32;2.55;;;1.90;;
57599;SDS011;43426;43.594;24.334;2023-11-21T11:38:03;3.65;;;2.53;;
57599;SDS011;43426;43.594;24.334;2023-11-21T11:43:05;2.40;;;1.70;;
57599;SDS011;43426;43.594;24.334;2023-11-21T11:45:32;3.10;;;1.52;;
57599;SDS011;43426;43.594;24.334;2023-11-21T11:48:00;2.08;;;1.25;;
57599;SDS011;43426;43.594;24.334;2023-11-21T11:50:28;1.33;;;1.10;;
57599;SDS011;43426;43.594;24.334;2023-11-21T11:55:22;1.30;;;1.20;;
57599;SDS011;43426;43.594;24.334;2023-11-21T11:57:53;2.75;;;2.00;;
57599;SDS011;43426;43.594;24.334;2023-11-21T12:02:52;2.50;;;1.52;;
57599;SDS011;43426;43.594;24.334;2023-11-21T12:05:19;3.70;;;2.05;;
57599;SDS011;43426;43.594;24.334;2023-11-21T12:07:49;2.17;;;1.60;;
57599;SDS011;43426;43.594;24.334;2023-11-21T12:10:40;3.35;;;2.20;;
57599;SDS011;43426;43.594;24.334;2023-11-21T12:13:06;3.05;;;2.03;;
57599;SDS011;43426;43.594;24.334;2023-11-21T12:15:33;2.63;;;1.45;;
57599;SDS011;43426;43.594;24.334;2023-11-21T12:18:00;2.03;;;1.42;;
57599;SDS011;43426;43.594;24.334;2023-11-21T12:22:52;2.40;;;1.90;;
57599;SDS011;43426;43.594;24.334;2023-11-21T12:25:20;4.43;;;2.15;;
57599;SDS011;43426;43.594;24.334;2023-11-21T12:27:48;8.77;;;2.40;;
57599;SDS011;43426;43.594;24.334;2023-11-21T12:30:20;4.72;;;2.60;;
57599;SDS011;43426;43.594;24.334;2023-11-21T12:32:51;2.75;;;2.03;;
57599;SDS011;43426;43.594;24.334;2023-11-21T12:35:27;2.83;;;2.00;;
57599;SDS011;43426;43.594;24.334;2023-11-21T12:37:55;2.55;;;1.58;;
57599;SDS011;43426;43.594;24.334;2023-11-21T12:40:24;4.15;;;2.17;;
57599;SDS011;43426;43.594;24.334;2023-11-21T12:42:57;2.10;;;1.58;;
57599;SDS011;43426;43.594;24.334;2023-11-21T12:45:27;2.70;;;2.10;;
57599;SDS011;43426;43.594;24.334;2023-11-21T12:47:57;2.45;;;1.60;;
57599;SDS011;43426;43.594;24.334;2023-11-21T12:50:33;4.68;;;1.75;;
57599;SDS011;43426;43.594;24.334;2023-11-21T12:55:30;2.85;;;2.00;;
57599;SDS011;43426;43.594;24.334;2023-11-21T12:58:00;2.80;;;2.53;;
57599;SDS011;43426;43.594;24.334;2023-11-21T13:00:34;4.53;;;2.25;;
57599;SDS011;43426;43.594;24.334;2023-11-21T13:03:05;5.18;;;2.42;;
57599;SDS011;43426;43.594;24.334;2023-11-21T13:05:33;6.50;;;2.90;;
57599;SDS011;43426;43.594;24.334;2023-11-21T13:08:03;4.40;;;2.33;;
57599;SDS011;43426;43.594;24.334;2023-11-21T13:10:33;5.18;;;2.63;;
57599;SDS011;43426;43.594;24.334;2023-11-21T13:13:01;3.55;;;2.95;;
57599;SDS011;43426;43.594;24.334;2023-11-21T13:15:30;5.43;;;3.47;;
57599;SDS011;43426;43.594;24.334;2023-11-21T13:17:57;6.65;;;4.10;;
57599;SDS011;43426;43.594;24.334;2023-11-21T13:22:53;7.47;;;4.40;;
57599;SDS011;43426;43.594;24.334;2023-11-21T13:25:22;5.10;;;4.10;;
57599;SDS011;43426;43.594;24.334;2023-11-21T13:27:55;8.00;;;4.07;;
57599;SDS011;43426;43.594;24.334;2023-11-21T13:30:22;6.57;;;4.20;;
57599;SDS011;43426;43.594;24.334;2023-11-21T13:33:01;5.22;;;3.85;;
57599;SDS011;43426;43.594;24.334;2023-11-21T13:35:31;14.80;;;3.83;;
57599;SDS011;43426;43.594;24.334;2023-11-21T13:38:06;9.02;;;3.45;;
57599;SDS011;43426;43.594;24.334;2023-11-21T13:40:34;5.28;;;3.53;;
57599;SDS011;43426;43.594;24.334;2023-11-21T13:43:07;4.70;;;3.00;;
57599;SDS011;43426;43.594;24.334;2023-11-21T13:45:37;5.47;;;3.30;;
57599;SDS011;43426;43.594;24.334;2023-11-21T13:48:04;5.43;;;3.30;;
57599;SDS011;43426;43.594;24.334;2023-11-21T13:50:35;6.47;;;4.03;;
57599;SDS011;43426;43.594;24.334;2023-11-21T13:55:47;8.65;;;4.22;;
57599;SDS011;43426;43.594;24.334;2023-11-21T13:58:14;6.70;;;3.95;;
57599;SDS011;43426;43.594;24.334;2023-11-21T14:00:48;7.05;;;4.80;;
57599;SDS011;43426;43.594;24.334;2023-11-21T14:03:21;11.35;;;6.07;;
57599;SDS011;43426;43.594;24.334;2023-11-21T14:05:48;12.27;;;7.82;;
57599;SDS011;43426;43.594;24.334;2023-11-21T14:08:16;9.38;;;5.25;;
57599;SDS011;43426;43.594;24.334;2023-11-21T14:10:49;5.97;;;3.38;;
57599;SDS011;43426;43.594;24.334;2023-11-21T14:13:18;3.17;;;2.40;;
57599;SDS011;43426;43.594;24.334;2023-11-21T14:18:11;4.28;;;3.17;;
57599;SDS011;43426;43.594;24.334;2023-11-21T14:20:42;6.63;;;3.10;;
57599;SDS011;43426;43.594;24.334;2023-11-21T14:23:09;6.68;;;2.97;;
57599;SDS011;43426;43.594;24.334;2023-11-21T14:25:36;3.53;;;2.80;;
57599;SDS011;43426;43.594;24.334;2023-11-21T14:28:03;3.72;;;3.30;;
57599;SDS011;43426;43.594;24.334;2023-11-21T14:30:31;8.68;;;4.82;;
57599;SDS011;43426;43.594;24.334;2023-11-21T14:33:01;9.70;;;5.18;;
57599;SDS011;43426;43.594;24.334;2023-11-21T14:35:27;8.98;;;4.82;;
57599;SDS011;43426;43.594;24.334;2023-11-21T14:37:57;6.72;;;4.60;;
57599;SDS011;43426;43.594;24.334;2023-11-21T14:40:24;8.93;;;6.18;;
57599;SDS011;43426;43.594;24.334;2023-11-21T14:42:52;13.63;;;8.10;;
57599;SDS011;43426;43.594;24.334;2023-11-21T14:45:19;13.38;;;8.00;;
57599;SDS011;43426;43.594;24.334;2023-11-21T14:47:48;12.63;;;8.85;;
57599;SDS011;43426;43.594;24.334;2023-11-21T14:53:16;20.08;;;11.75;;
57599;SDS011;43426;43.594;24.334;2023-11-21T14:55:53;22.13;;;11.93;;
57599;SDS011;43426;43.594;24.334;2023-11-21T14:58:23;14.55;;;10.27;;
57599;SDS011;43426;43.594;24.334;2023-11-21T15:00:55;11.98;;;9.15;;
57599;SDS011;43426;43.594;24.334;2023-11-21T15:03:24;15.75;;;11.35;;
57599;SDS011;43426;43.594;24.334;2023-11-21T15:06:00;29.98;;;14.88;;
57599;SDS011;43426;43.594;24.334;2023-11-21T15:09:03;10.05;;;7.97;;
57599;SDS011;43426;43.594;24.334;2023-11-21T15:11:34;13.23;;;7.55;;
57599;SDS011;43426;43.594;24.334;2023-11-21T15:14:01;22.20;;;9.60;;
57599;SDS011;43426;43.594;24.334;2023-11-21T15:16:32;15.07;;;9.63;;
57599;SDS011;43426;43.594;24.334;2023-11-21T15:18:58;11.50;;;8.75;;
57599;SDS011;43426;43.594;24.334;2023-11-21T15:21:23;13.35;;;8.95;;
57599;SDS011;43426;43.594;24.334;2023-11-21T15:23:50;18.38;;;9.60;;
57599;SDS011;43426;43.594;24.334;2023-11-21T15:26:16;17.45;;;9.40;;
57599;SDS011;43426;43.594;24.334;2023-11-21T15:28:42;12.45;;;8.13;;
57599;SDS011;43426;43.594;24.334;2023-11-21T15:31:07;12.52;;;7.57;;
57599;SDS011;43426;43.594;24.334;2023-11-21T15:33:33;9.98;;;7.85;;